Plain, Wisconsin
Current Conditions -  °F | °C
As of 11:56 AM on Thursday 30 Oct 2014 (Local Time) from KLNR Reporting Station
Overcast Overcast  
Wind Chill: 50°   Ceiling: 7500
Heat Index: 50°   Visibility: 10mi
Dew Point: 36°   Wind: 0mph
Humidity: 59%   Direction: NA
Pressure: 30.1"   Gusts: NA
Location:  43.28°N, 90.04°W
Report Text: KLNR 301656Z AUTO 00000KT 10SM BKN075 OVC090 10/02 A3010 RMK AO2 SLP192 T01000022
Loading
Personal Weather Stations






























Interactive Weather Map
Tropical Storm Tracking
New forecast layout! Learn more

10-Day Weather Forecast

Advertisements
Track Severe Weather on mobile